KLM604 KLAX-EHAM
Flight info
| Callsign | KLM604 |
|---|---|
| Flight time | N/A |
| Altitude | 35000 |
| Route | DOTSS2 CNERY DCT BLH J169 KOFFA J65 PXR DCT KA21Q DCT KA27U DCT KK36A DCT KK48G DCT SPI DCT GIJ DCT SVM DCT DERLO Q907 SIKBO/N0501F370 DCT IPTOS DCT KEMVI Q852 TAMKO Q941 AGLUK DCT BAREE N793B JANJO/M085F380 DCT 56N050W 57N040W 58N030W 58N020W DCT SUNOT DCT KESIX/N0496F390 DCT AMLAD DCT MAC DCT EMGAT DCT ERKIT N110 DOLAS L603 LAMSO |
| Aircraft | B78X/H-SDE1E2E3FGHIJ2J3J4J5M1RWXY/LB1D1 |
Departure
| Time | N/A |
|---|---|
| Airport | Los Angeles International Airport (KLAX) |
Arrival
| Time | 2026-05-07 14:59 |
|---|---|
| Airport | Amsterdam Airport Schiphol (EHAM) |
| Time | Latitude | Longitude | Altitude | Speed | Heading |
|---|---|---|---|---|---|
| 2026-05-07 14:11 | 54.57499 | -2.63484 | 37017 ft | 486 kts | 118° |
| 2026-05-07 14:12 | 54.54468 | -2.53069 | 37019 ft | 486 kts | 118° |
| 2026-05-07 14:12 | 54.51424 | -2.42664 | 37016 ft | 487 kts | 118° |
| 2026-05-07 14:13 | 54.48372 | -2.32270 | 37015 ft | 487 kts | 119° |
| 2026-05-07 14:13 | 54.45309 | -2.21890 | 37015 ft | 487 kts | 119° |
| 2026-05-07 14:14 | 54.42236 | -2.11526 | 37016 ft | 487 kts | 119° |
| 2026-05-07 14:14 | 54.39160 | -2.01185 | 37023 ft | 486 kts | 119° |
| 2026-05-07 14:15 | 54.36069 | -1.90848 | 37030 ft | 487 kts | 119° |
| 2026-05-07 14:15 | 54.32973 | -1.80536 | 37032 ft | 486 kts | 119° |
| 2026-05-07 14:16 | 54.29865 | -1.70228 | 37043 ft | 487 kts | 119° |
| 2026-05-07 14:16 | 54.26773 | -1.60018 | 37043 ft | 487 kts | 119° |
| 2026-05-07 14:17 | 54.23648 | -1.49745 | 37039 ft | 487 kts | 119° |
| 2026-05-07 14:17 | 54.20520 | -1.39505 | 37042 ft | 486 kts | 119° |
| 2026-05-07 14:18 | 54.17381 | -1.29276 | 37045 ft | 486 kts | 119° |
| 2026-05-07 14:18 | 54.14237 | -1.19069 | 37040 ft | 486 kts | 119° |
| 2026-05-07 14:19 | 54.11085 | -1.08882 | 37040 ft | 485 kts | 119° |
| 2026-05-07 14:19 | 54.07929 | -0.98725 | 37043 ft | 485 kts | 119° |
| 2026-05-07 14:20 | 54.04755 | -0.88590 | 37045 ft | 484 kts | 122° |
| 2026-05-07 14:20 | 54.02808 | -0.83940 | 37070 ft | 483 kts | 134° |
| 2026-05-07 14:20 | 54.00378 | -0.80014 | 37080 ft | 483 kts | 144° |
| 2026-05-07 14:21 | 53.94898 | -0.73446 | 37066 ft | 482 kts | 146° |
| 2026-05-07 14:21 | 53.89403 | -0.67070 | 37063 ft | 482 kts | 146° |
| 2026-05-07 14:22 | 53.83885 | -0.60607 | 37066 ft | 482 kts | 146° |
| 2026-05-07 14:22 | 53.78358 | -0.54197 | 37068 ft | 482 kts | 146° |
| 2026-05-07 14:23 | 53.72832 | -0.47787 | 37074 ft | 481 kts | 146° |
| 2026-05-07 14:23 | 53.67304 | -0.41407 | 37079 ft | 481 kts | 146° |
| 2026-05-07 14:24 | 53.61773 | -0.35039 | 37078 ft | 481 kts | 146° |
| 2026-05-07 14:24 | 53.56639 | -0.27858 | 37103 ft | 483 kts | 130° |
| 2026-05-07 14:25 | 53.52546 | -0.18899 | 37086 ft | 483 kts | 127° |
| 2026-05-07 14:25 | 53.48512 | -0.09866 | 37080 ft | 483 kts | 128° |
| 2026-05-07 14:26 | 53.44449 | -0.00901 | 37078 ft | 482 kts | 128° |
| 2026-05-07 14:26 | 53.40399 | 0.08062 | 37079 ft | 482 kts | 128° |
| 2026-05-07 14:27 | 53.36335 | 0.16991 | 37076 ft | 482 kts | 128° |
| 2026-05-07 14:27 | 53.32267 | 0.25914 | 37077 ft | 482 kts | 128° |
| 2026-05-07 14:28 | 53.28194 | 0.34807 | 37077 ft | 482 kts | 128° |
| 2026-05-07 14:28 | 53.24113 | 0.43691 | 37080 ft | 482 kts | 128° |
| 2026-05-07 14:29 | 53.20051 | 0.52500 | 37082 ft | 482 kts | 128° |
| 2026-05-07 14:29 | 53.15962 | 0.61340 | 37083 ft | 482 kts | 128° |
| 2026-05-07 14:30 | 53.11853 | 0.70187 | 37082 ft | 482 kts | 128° |
| 2026-05-07 14:30 | 53.07743 | 0.79010 | 37082 ft | 483 kts | 128° |
| 2026-05-07 14:31 | 53.03622 | 0.87821 | 37082 ft | 483 kts | 129° |
| 2026-05-07 14:31 | 52.99711 | 0.96298 | 37091 ft | 483 kts | 122° |
| 2026-05-07 14:32 | 52.97140 | 1.06579 | 37118 ft | 487 kts | 102° |
| 2026-05-07 14:32 | 52.95832 | 1.17608 | 37100 ft | 487 kts | 102° |
| 2026-05-07 14:33 | 52.94571 | 1.28653 | 37104 ft | 487 kts | 102° |
| 2026-05-07 14:33 | 52.93267 | 1.39655 | 36716 ft | 483 kts | 102° |
| 2026-05-07 14:33 | 52.92630 | 1.45093 | 36247 ft | 477 kts | 102° |
| 2026-05-07 14:34 | 52.91996 | 1.50459 | 35803 ft | 472 kts | 102° |
| 2026-05-07 14:34 | 52.91372 | 1.55689 | 35363 ft | 467 kts | 102° |
| 2026-05-07 14:34 | 52.90741 | 1.60957 | 34925 ft | 466 kts | 101° |
| 2026-05-07 14:34 | 52.90109 | 1.66226 | 34504 ft | 465 kts | 101° |
| 2026-05-07 14:35 | 52.89480 | 1.71462 | 34083 ft | 463 kts | 101° |
| 2026-05-07 14:35 | 52.88848 | 1.76691 | 33590 ft | 464 kts | 101° |
| 2026-05-07 14:35 | 52.88210 | 1.81939 | 33108 ft | 466 kts | 101° |
| 2026-05-07 14:35 | 52.87568 | 1.87206 | 32635 ft | 468 kts | 101° |
| 2026-05-07 14:36 | 52.86922 | 1.92491 | 32172 ft | 469 kts | 101° |
| 2026-05-07 14:36 | 52.86272 | 1.97791 | 31717 ft | 470 kts | 101° |
| 2026-05-07 14:36 | 52.85620 | 2.03077 | 31258 ft | 467 kts | 101° |
| 2026-05-07 14:36 | 52.84969 | 2.08332 | 30814 ft | 464 kts | 101° |
| 2026-05-07 14:37 | 52.84321 | 2.13550 | 30368 ft | 462 kts | 101° |
| 2026-05-07 14:37 | 52.83030 | 2.23880 | 29362 ft | 456 kts | 102° |
| 2026-05-07 14:37 | 52.82386 | 2.29009 | 28865 ft | 454 kts | 102° |
| 2026-05-07 14:38 | 52.81743 | 2.34100 | 28371 ft | 452 kts | 102° |
| 2026-05-07 14:38 | 52.81101 | 2.39176 | 27886 ft | 450 kts | 102° |
| 2026-05-07 14:38 | 52.80459 | 2.44225 | 27403 ft | 448 kts | 102° |
| 2026-05-07 14:38 | 52.79819 | 2.49250 | 26937 ft | 446 kts | 102° |
| 2026-05-07 14:39 | 52.79179 | 2.54247 | 26474 ft | 443 kts | 102° |
| 2026-05-07 14:39 | 52.78540 | 2.59217 | 25992 ft | 441 kts | 102° |
| 2026-05-07 14:39 | 52.77903 | 2.64163 | 25561 ft | 439 kts | 102° |
| 2026-05-07 14:39 | 52.77266 | 2.69091 | 25115 ft | 437 kts | 102° |
| 2026-05-07 14:40 | 52.76634 | 2.73959 | 24677 ft | 429 kts | 103° |
| 2026-05-07 14:40 | 52.76013 | 2.78728 | 24239 ft | 422 kts | 103° |
| 2026-05-07 14:40 | 52.75395 | 2.83447 | 23816 ft | 420 kts | 103° |
| 2026-05-07 14:40 | 52.74678 | 2.88119 | 23319 ft | 420 kts | 108° |
| 2026-05-07 14:41 | 52.73709 | 2.92648 | 22769 ft | 416 kts | 111° |
| 2026-05-07 14:41 | 52.72704 | 2.97101 | 22224 ft | 413 kts | 110° |
| 2026-05-07 14:41 | 52.71826 | 3.01588 | 21682 ft | 410 kts | 108° |
| 2026-05-07 14:41 | 52.71000 | 3.06064 | 21155 ft | 407 kts | 108° |
| 2026-05-07 14:42 | 52.70126 | 3.10485 | 20647 ft | 404 kts | 109° |
| 2026-05-07 14:42 | 52.69227 | 3.14854 | 20143 ft | 401 kts | 109° |
| 2026-05-07 14:42 | 52.68356 | 3.19182 | 19642 ft | 394 kts | 109° |
| 2026-05-07 14:42 | 52.67518 | 3.23428 | 19151 ft | 386 kts | 109° |
| 2026-05-07 14:43 | 52.66688 | 3.27592 | 18661 ft | 379 kts | 109° |
| 2026-05-07 14:43 | 52.65862 | 3.31674 | 18145 ft | 372 kts | 109° |
| 2026-05-07 14:43 | 52.65052 | 3.35686 | 17596 ft | 366 kts | 109° |
| 2026-05-07 14:43 | 52.64256 | 3.39634 | 17039 ft | 360 kts | 109° |
| 2026-05-07 14:44 | 52.63471 | 3.43518 | 16527 ft | 355 kts | 109° |
| 2026-05-07 14:44 | 52.62695 | 3.47347 | 16000 ft | 349 kts | 109° |
| 2026-05-07 14:44 | 52.61941 | 3.51061 | 15495 ft | 344 kts | 109° |
| 2026-05-07 14:44 | 52.61186 | 3.54772 | 14992 ft | 340 kts | 109° |
| 2026-05-07 14:45 | 52.60440 | 3.58431 | 14532 ft | 334 kts | 109° |
| 2026-05-07 14:45 | 52.59706 | 3.62026 | 14094 ft | 329 kts | 109° |
| 2026-05-07 14:45 | 52.58984 | 3.65560 | 13636 ft | 324 kts | 109° |
| 2026-05-07 14:45 | 52.58269 | 3.69048 | 13125 ft | 321 kts | 109° |
| 2026-05-07 14:46 | 52.57559 | 3.72508 | 12656 ft | 317 kts | 109° |
| 2026-05-07 14:46 | 52.56856 | 3.75927 | 12209 ft | 314 kts | 109° |
| 2026-05-07 14:46 | 52.56161 | 3.79300 | 11773 ft | 310 kts | 109° |
| 2026-05-07 14:46 | 52.55475 | 3.82625 | 11398 ft | 305 kts | 109° |
| 2026-05-07 14:47 | 52.54799 | 3.85898 | 11006 ft | 300 kts | 109° |
| 2026-05-07 14:47 | 52.54133 | 3.89119 | 10630 ft | 296 kts | 109° |
| 2026-05-07 14:47 | 52.53474 | 3.92291 | 10274 ft | 291 kts | 109° |
| 2026-05-07 14:47 | 52.52825 | 3.95420 | 9925 ft | 289 kts | 109° |
| 2026-05-07 14:48 | 52.52080 | 3.98463 | 9543 ft | 286 kts | 115° |
| 2026-05-07 14:48 | 52.51053 | 4.01210 | 9199 ft | 282 kts | 133° |
| 2026-05-07 14:48 | 52.49631 | 4.03407 | 8881 ft | 280 kts | 140° |
| 2026-05-07 14:48 | 52.48143 | 4.05447 | 8564 ft | 278 kts | 142° |
| 2026-05-07 14:49 | 52.46646 | 4.07443 | 8258 ft | 276 kts | 142° |
| 2026-05-07 14:49 | 52.45162 | 4.09411 | 7992 ft | 274 kts | 142° |
| 2026-05-07 14:49 | 52.43684 | 4.11368 | 7729 ft | 272 kts | 142° |
| 2026-05-07 14:49 | 52.42215 | 4.13313 | 7484 ft | 271 kts | 142° |
| 2026-05-07 14:50 | 52.40755 | 4.15243 | 7239 ft | 269 kts | 142° |
| 2026-05-07 14:50 | 52.39303 | 4.17160 | 6982 ft | 268 kts | 142° |
| 2026-05-07 14:50 | 52.37855 | 4.19069 | 6739 ft | 266 kts | 142° |
| 2026-05-07 14:50 | 52.36416 | 4.20960 | 6492 ft | 263 kts | 142° |
| 2026-05-07 14:51 | 52.35010 | 4.22802 | 6212 ft | 255 kts | 142° |
| 2026-05-07 14:51 | 52.33623 | 4.24613 | 5944 ft | 254 kts | 142° |
| 2026-05-07 14:51 | 52.32272 | 4.26367 | 5680 ft | 252 kts | 142° |
| 2026-05-07 14:51 | 52.30916 | 4.28115 | 5408 ft | 245 kts | 142° |
| 2026-05-07 14:52 | 52.29577 | 4.29828 | 5137 ft | 244 kts | 142° |
| 2026-05-07 14:52 | 52.28353 | 4.31384 | 4898 ft | 244 kts | 142° |
| 2026-05-07 14:52 | 52.27008 | 4.33081 | 4625 ft | 243 kts | 142° |
| 2026-05-07 14:52 | 52.25681 | 4.34744 | 4364 ft | 238 kts | 142° |
| 2026-05-07 14:53 | 52.24397 | 4.36339 | 4139 ft | 227 kts | 142° |
| 2026-05-07 14:53 | 52.23158 | 4.37864 | 3941 ft | 221 kts | 142° |
| 2026-05-07 14:53 | 52.22344 | 4.38858 | 3821 ft | 220 kts | 142° |
| 2026-05-07 14:53 | 52.21207 | 4.40498 | 3571 ft | 219 kts | 125° |
| 2026-05-07 14:54 | 52.20731 | 4.43596 | 3315 ft | 215 kts | 94° |
| 2026-05-07 14:54 | 52.20643 | 4.46023 | 3184 ft | 215 kts | 92° |
| 2026-05-07 14:54 | 52.20565 | 4.48405 | 3017 ft | 206 kts | 92° |
| 2026-05-07 14:54 | 52.20486 | 4.50703 | 2848 ft | 200 kts | 92° |
| 2026-05-07 14:55 | 52.20568 | 4.52195 | 2695 ft | 195 kts | 72° |
| 2026-05-07 14:55 | 52.21320 | 4.53972 | 2521 ft | 188 kts | 51° |
| 2026-05-07 14:55 | 52.21993 | 4.55751 | 2372 ft | 180 kts | 59° |
| 2026-05-07 14:55 | 52.22624 | 4.57419 | 2209 ft | 166 kts | 56° |
| 2026-05-07 14:56 | 52.23225 | 4.58959 | 2093 ft | 159 kts | 57° |
| 2026-05-07 14:56 | 52.23777 | 4.60402 | 1903 ft | 142 kts | 56° |
| 2026-05-07 14:56 | 52.24310 | 4.61789 | 1749 ft | 148 kts | 57° |
| 2026-05-07 14:56 | 52.24847 | 4.63177 | 1556 ft | 150 kts | 56° |
| 2026-05-07 14:57 | 52.25395 | 4.64600 | 1375 ft | 147 kts | 56° |
| 2026-05-07 14:57 | 52.25944 | 4.66029 | 1169 ft | 146 kts | 56° |
| 2026-05-07 14:57 | 52.26486 | 4.67433 | 930 ft | 145 kts | 56° |
| 2026-05-07 14:57 | 52.27025 | 4.68830 | 731 ft | 147 kts | 55° |
| 2026-05-07 14:58 | 52.27560 | 4.70220 | 513 ft | 145 kts | 56° |
| 2026-05-07 14:58 | 52.28097 | 4.71615 | 328 ft | 146 kts | 56° |
| 2026-05-07 14:58 | 52.28639 | 4.73022 | 145 ft | 145 kts | 56° |
| 2026-05-07 14:58 | 52.29172 | 4.74409 | 12 ft | 136 kts | 56° |
| 2026-05-07 14:59 | 52.29581 | 4.75469 | 4 ft | 79 kts | 58° |
| 2026-05-07 14:59 | 52.29819 | 4.76090 | 2 ft | 56 kts | 58° |
| 2026-05-07 14:59 | 52.29995 | 4.76501 | 4 ft | 32 kts | 40° |
| 2026-05-07 14:59 | 52.30145 | 4.76639 | 5 ft | 21 kts | 28° |
| 2026-05-07 15:00 | 52.30244 | 4.76726 | 5 ft | 12 kts | 27° |
| 2026-05-07 15:00 | 52.30304 | 4.76807 | 5 ft | 11 kts | 51° |
| 2026-05-07 15:00 | 52.30346 | 4.76911 | 5 ft | 10 kts | 58° |
| 2026-05-07 15:00 | 52.30373 | 4.76983 | 5 ft | 4 kts | 57° |
| 2026-05-07 15:01 | 52.30376 | 4.76988 | 5 ft | 0 kts | 57° |
| 2026-05-07 15:01 | 52.30377 | 4.76992 | 5 ft | 1 kts | 57° |
| 2026-05-07 15:02 | 52.30386 | 4.77012 | 5 ft | 4 kts | 50° |
| 2026-05-07 15:02 | 52.30418 | 4.77035 | 5 ft | 6 kts | 10° |
| 2026-05-07 15:02 | 52.30465 | 4.77013 | 6 ft | 8 kts | 332° |
| 2026-05-07 15:02 | 52.30513 | 4.76962 | 5 ft | 9 kts | 327° |
| 2026-05-07 15:03 | 52.30571 | 4.76904 | 5 ft | 11 kts | 327° |
| 2026-05-07 15:03 | 52.30616 | 4.76808 | 5 ft | 11 kts | 308° |
| 2026-05-07 15:03 | 52.30679 | 4.76725 | 5 ft | 12 kts | 329° |
| 2026-05-07 15:03 | 52.30743 | 4.76659 | 5 ft | 9 kts | 330° |
| 2026-05-07 15:04 | 52.30788 | 4.76639 | 5 ft | 5 kts | 345° |
| 2026-05-07 15:04 | 52.30799 | 4.76634 | 5 ft | 0 kts | 345° |